createdAt,value
2022-12-15T00:02:35.797Z,-2.60
2022-12-15T00:05:21.648Z,-2.69
2022-12-15T00:08:07.470Z,-2.57
2022-12-15T00:10:52.825Z,-2.76
2022-12-15T00:13:39.751Z,-2.74
2022-12-15T00:16:26.231Z,-3.54
2022-12-15T00:19:12.062Z,-2.79
2022-12-15T00:21:57.531Z,-2.81
2022-12-15T00:24:43.318Z,-3.17
2022-12-15T00:27:28.736Z,-3.03
2022-12-15T00:30:15.418Z,-3.17
2022-12-15T00:33:01.099Z,-2.60
2022-12-15T00:35:46.409Z,-2.62
2022-12-15T00:38:33.235Z,-2.71
2022-12-15T00:41:01.818Z,-2.58
2022-12-15T00:43:30.855Z,-2.51
2022-12-15T00:46:18.837Z,-2.61
2022-12-15T00:48:47.887Z,-3.34
2022-12-15T00:51:15.534Z,-2.56
2022-12-15T00:54:02.333Z,-2.53
2022-12-15T00:56:48.109Z,-2.66
2022-12-15T00:59:34.321Z,-2.48
2022-12-15T01:02:21.603Z,-2.43
2022-12-15T01:05:07.609Z,-2.47
2022-12-15T01:07:52.876Z,-2.47
2022-12-15T01:10:38.737Z,-2.42
2022-12-15T01:13:24.905Z,-2.58
2022-12-15T01:16:10.399Z,-2.47
2022-12-15T01:18:57.463Z,-2.57
2022-12-15T01:21:26.000Z,-2.42
2022-12-15T01:23:54.759Z,-2.38
2022-12-15T01:26:22.903Z,-2.32
2022-12-15T01:28:51.000Z,-2.30
2022-12-15T01:31:19.248Z,-2.66
2022-12-15T01:33:48.829Z,-2.27
2022-12-15T01:36:16.982Z,-2.35
2022-12-15T01:38:49.349Z,-2.34
2022-12-15T01:41:19.503Z,-2.32
2022-12-15T01:43:47.624Z,-2.32
2022-12-15T01:46:20.459Z,-2.23
2022-12-15T01:48:53.769Z,-2.18
2022-12-15T01:51:27.305Z,-2.27
2022-12-15T01:54:00.549Z,-2.23
2022-12-15T01:56:35.525Z,-2.33
2022-12-15T01:59:08.748Z,-2.54
2022-12-15T02:01:37.244Z,-2.33
2022-12-15T02:04:06.887Z,-3.44
2022-12-15T02:06:36.319Z,-2.32
2022-12-15T02:09:05.753Z,-2.25
2022-12-15T02:11:44.217Z,-2.23
2022-12-15T02:14:16.044Z,-2.21
2022-12-15T02:16:57.877Z,-2.11
2022-12-15T02:19:56.008Z,-2.11
2022-12-15T02:22:36.133Z,-2.06
2022-12-15T02:25:19.547Z,-2.11
2022-12-15T02:28:03.429Z,-2.20
2022-12-15T02:30:42.724Z,-2.56
2022-12-15T02:33:18.723Z,-2.18
2022-12-15T02:35:56.396Z,-2.19
2022-12-15T02:38:35.928Z,-2.18
2022-12-15T02:41:05.983Z,-2.45
2022-12-15T02:43:38.990Z,-2.18
2022-12-15T02:46:21.762Z,-2.13
2022-12-15T02:49:03.700Z,-2.14
2022-12-15T02:51:45.883Z,-2.10
2022-12-15T02:54:38.105Z,-2.08
2022-12-15T02:57:17.180Z,-2.02
2022-12-15T02:59:55.659Z,-2.33
2022-12-15T03:02:27.938Z,-2.26
2022-12-15T03:04:57.082Z,-2.12
2022-12-15T03:07:28.019Z,-2.49
2022-12-15T03:09:57.354Z,-2.30
2022-12-15T03:12:25.521Z,-2.30
2022-12-15T03:14:53.625Z,-2.30
2022-12-15T03:17:21.709Z,-2.25
2022-12-15T03:19:51.248Z,-2.32
2022-12-15T03:22:19.322Z,-2.27
2022-12-15T03:24:48.457Z,-2.37
2022-12-15T03:27:16.674Z,-2.39
2022-12-15T03:29:44.876Z,-2.35
2022-12-15T03:32:12.996Z,-2.33
2022-12-15T03:34:42.000Z,-2.90
2022-12-15T03:37:11.485Z,-2.26
2022-12-15T03:39:39.600Z,-2.23
2022-12-15T03:42:07.801Z,-2.36
2022-12-15T03:44:35.909Z,-2.25
2022-12-15T03:47:04.165Z,-2.27
2022-12-15T03:49:32.244Z,-2.28
2022-12-15T03:52:00.428Z,-2.42
2022-12-15T03:54:29.915Z,-2.79
2022-12-15T03:56:58.090Z,-2.61
2022-12-15T03:59:26.179Z,-2.29
2022-12-15T04:01:54.448Z,-2.12
2022-12-15T04:04:22.631Z,-2.09
2022-12-15T04:06:50.713Z,-2.21
2022-12-15T04:09:19.538Z,-2.24
2022-12-15T04:11:49.119Z,-2.34
2022-12-15T04:14:17.250Z,-2.08
2022-12-15T04:16:45.437Z,-2.07
2022-12-15T04:19:27.403Z,-2.17
2022-12-15T04:21:55.539Z,-2.33
2022-12-15T04:24:41.271Z,-2.36
2022-12-15T04:27:28.324Z,-2.41
2022-12-15T04:30:13.685Z,-2.44
2022-12-15T04:32:59.454Z,-2.42
2022-12-15T04:35:45.304Z,-2.33
2022-12-15T04:38:35.572Z,-2.39
2022-12-15T04:41:21.250Z,-2.38
2022-12-15T04:44:08.005Z,-2.45
2022-12-15T04:46:53.732Z,-2.34
2022-12-15T04:49:39.549Z,-2.36
2022-12-15T04:52:25.152Z,-2.68
2022-12-15T04:55:10.554Z,-2.36
2022-12-15T04:57:56.286Z,-2.39
2022-12-15T05:00:43.365Z,-2.47
2022-12-15T05:03:29.104Z,-2.42
2022-12-15T05:06:16.631Z,-2.23
2022-12-15T05:09:02.299Z,-2.97
2022-12-15T05:11:47.688Z,-2.46
2022-12-15T05:14:33.422Z,-2.67
2022-12-15T05:17:20.370Z,-2.56
2022-12-15T05:20:06.207Z,-2.77
2022-12-15T05:22:51.634Z,-2.65
2022-12-15T05:25:37.252Z,-2.70
2022-12-15T05:28:25.512Z,-2.70
2022-12-15T05:31:11.269Z,-2.73
2022-12-15T05:33:40.834Z,-2.71
2022-12-15T05:36:09.710Z,-2.67
2022-12-15T05:38:37.893Z,-2.71
2022-12-15T05:41:06.191Z,-2.71
2022-12-15T05:43:34.906Z,-2.72
2022-12-15T05:46:04.982Z,-2.64
2022-12-15T05:48:33.200Z,-2.62
2022-12-15T05:51:06.319Z,-2.78
2022-12-15T05:53:34.961Z,-2.99
2022-12-15T05:56:04.180Z,-3.07
2022-12-15T05:58:32.364Z,-2.95
2022-12-15T06:01:05.358Z,-2.96
2022-12-15T06:03:33.919Z,-2.94
2022-12-15T06:06:02.893Z,-2.86
2022-12-15T06:08:33.802Z,-2.94
2022-12-15T06:11:02.609Z,-2.92
2022-12-15T06:13:34.716Z,-2.98
2022-12-15T06:16:04.382Z,-4.09
2022-12-15T06:18:34.149Z,-3.12
2022-12-15T06:21:04.293Z,-2.95
2022-12-15T06:23:34.879Z,-3.20
2022-12-15T06:26:11.280Z,-3.08
2022-12-15T06:28:39.854Z,-3.21
2022-12-15T06:31:10.332Z,-2.97
2022-12-15T06:33:39.039Z,-2.99
2022-12-15T06:36:09.609Z,-2.99
2022-12-15T06:38:39.221Z,-3.23
2022-12-15T06:41:08.414Z,-2.95
2022-12-15T06:43:36.677Z,-3.05
2022-12-15T06:46:04.868Z,-3.09
2022-12-15T06:48:33.014Z,-3.10
2022-12-15T06:51:04.067Z,-3.11
2022-12-15T06:53:32.635Z,-3.11
2022-12-15T06:56:04.722Z,-3.04
2022-12-15T06:58:32.824Z,-3.00
2022-12-15T07:01:06.065Z,-3.05
2022-12-15T07:03:34.667Z,-3.19
2022-12-15T07:06:05.518Z,-2.95
2022-12-15T07:08:39.598Z,-3.14
2022-12-15T07:11:14.248Z,-3.10
2022-12-15T07:13:42.559Z,-2.76
2022-12-15T07:16:12.890Z,-2.63
2022-12-15T07:18:41.288Z,-2.53
2022-12-15T07:21:11.008Z,-2.34
2022-12-15T07:23:53.940Z,-2.30
2022-12-15T07:26:24.740Z,-2.47
2022-12-15T07:28:53.965Z,-2.30
2022-12-15T07:31:23.106Z,-3.34
2022-12-15T07:33:52.755Z,-2.15
2022-12-15T07:36:21.162Z,-2.04
2022-12-15T07:38:50.529Z,-1.87
2022-12-15T07:41:20.631Z,-1.81
2022-12-15T07:43:50.292Z,-1.83
2022-12-15T07:46:19.448Z,-1.97
2022-12-15T07:48:50.529Z,-1.72
2022-12-15T07:51:21.225Z,-2.73
2022-12-15T07:53:51.281Z,-1.36
2022-12-15T07:56:20.868Z,-1.50
2022-12-15T07:58:50.452Z,-1.37
2022-12-15T08:01:18.840Z,-1.38
2022-12-15T08:03:48.183Z,-1.30
2022-12-15T08:06:16.980Z,-1.17
2022-12-15T08:08:50.732Z,-1.46
2022-12-15T08:11:22.069Z,-0.99
2022-12-15T08:14:02.463Z,-0.76
2022-12-15T08:16:31.895Z,-0.89
2022-12-15T08:19:00.251Z,-0.56
2022-12-15T08:21:28.453Z,-0.47
2022-12-15T08:23:56.566Z,-0.36
2022-12-15T08:26:30.011Z,-0.28
2022-12-15T08:29:31.969Z,-0.19
2022-12-15T08:31:52.439Z,-0.29
2022-12-15T08:34:20.842Z,-0.12
2022-12-15T08:36:49.033Z,-0.18
2022-12-15T08:39:17.585Z,-0.20
2022-12-15T08:41:46.198Z,-0.12
2022-12-15T08:44:17.093Z,-0.20
2022-12-15T08:46:45.332Z,-0.32
2022-12-15T08:49:18.046Z,-0.06
2022-12-15T08:51:50.238Z,0.07
2022-12-15T08:54:19.500Z,0.18
2022-12-15T08:56:47.765Z,0.35
2022-12-15T08:59:17.331Z,0.46
2022-12-15T09:01:45.528Z,0.28
2022-12-15T09:04:13.803Z,0.78
2022-12-15T09:06:42.005Z,0.85
2022-12-15T09:09:13.919Z,0.86
2022-12-15T09:11:42.078Z,0.89
2022-12-15T09:14:10.246Z,0.85
2022-12-15T09:16:39.948Z,0.94
2022-12-15T09:19:08.551Z,1.06
2022-12-15T09:21:37.095Z,0.91
2022-12-15T09:24:06.350Z,1.06
2022-12-15T09:26:35.726Z,1.16
2022-12-15T09:29:04.230Z,1.14
2022-12-15T09:31:34.012Z,1.24
2022-12-15T09:34:03.947Z,0.41
2022-12-15T09:36:33.436Z,1.57
2022-12-15T09:39:03.124Z,1.59
2022-12-15T09:41:33.225Z,1.59
2022-12-15T09:44:04.370Z,1.58
2022-12-15T09:46:49.826Z,1.65
2022-12-15T09:49:32.037Z,1.73
2022-12-15T09:52:10.701Z,1.76
2022-12-15T09:54:41.962Z,1.93
2022-12-15T09:57:18.763Z,2.00
2022-12-15T10:00:05.208Z,2.10
2022-12-15T10:03:02.285Z,1.85
2022-12-15T10:06:07.110Z,2.20
2022-12-15T10:08:35.235Z,2.29
2022-12-15T10:11:06.243Z,2.35
2022-12-15T10:13:42.076Z,2.38
2022-12-15T10:16:21.751Z,2.28
2022-12-15T10:19:01.714Z,2.39
2022-12-15T10:21:33.231Z,2.36
2022-12-15T10:24:17.622Z,2.36
2022-12-15T10:26:58.283Z,2.22
2022-12-15T10:29:37.748Z,2.01
2022-12-15T10:32:11.956Z,1.92
2022-12-15T10:34:43.258Z,1.79
2022-12-15T10:37:17.644Z,1.62
2022-12-15T10:39:47.522Z,1.76
2022-12-15T10:42:21.945Z,1.78
2022-12-15T10:44:51.865Z,1.64
2022-12-15T10:47:26.021Z,1.15
2022-12-15T10:49:55.293Z,2.27
2022-12-15T10:52:35.902Z,2.54
2022-12-15T10:55:24.136Z,2.86
2022-12-15T10:58:00.886Z,2.97
2022-12-15T11:00:31.405Z,3.15
2022-12-15T11:03:00.193Z,3.00
2022-12-15T11:05:28.683Z,3.44
2022-12-15T11:08:16.604Z,3.58
2022-12-15T11:11:09.636Z,3.68
2022-12-15T11:13:38.344Z,3.83
2022-12-15T11:16:17.107Z,3.98
2022-12-15T11:18:49.956Z,4.03
2022-12-15T11:21:23.720Z,3.93
2022-12-15T11:24:09.955Z,3.78
2022-12-15T11:26:49.592Z,3.82
2022-12-15T11:29:26.267Z,3.55
2022-12-15T11:31:57.945Z,3.67
2022-12-15T11:34:37.890Z,3.97
2022-12-15T11:37:36.490Z,4.23
2022-12-15T11:40:20.241Z,4.45
2022-12-15T11:43:01.017Z,4.51
2022-12-15T11:45:43.301Z,4.55
2022-12-15T11:48:17.337Z,4.62
2022-12-15T11:50:54.785Z,4.72
2022-12-15T11:53:52.210Z,4.69
2022-12-15T11:56:30.335Z,4.69
2022-12-15T11:59:39.675Z,4.84
2022-12-15T12:02:27.848Z,4.73
2022-12-15T12:05:11.065Z,4.56
2022-12-15T12:07:45.798Z,4.37
2022-12-15T12:10:28.957Z,4.19
2022-12-15T12:13:06.697Z,3.89
2022-12-15T12:15:49.240Z,4.05
2022-12-15T12:18:23.016Z,4.04
2022-12-15T12:20:57.944Z,4.22
2022-12-15T12:23:32.950Z,4.40
2022-12-15T12:26:08.495Z,4.55
2022-12-15T12:28:48.895Z,4.81
2022-12-15T12:31:39.750Z,4.81
2022-12-15T12:34:15.236Z,5.03
2022-12-15T12:36:45.175Z,5.06
2022-12-15T12:39:21.545Z,4.63
2022-12-15T12:41:57.021Z,4.99
2022-12-15T12:44:32.256Z,5.00
2022-12-15T12:47:07.936Z,4.97
2022-12-15T12:49:42.214Z,5.02
2022-12-15T12:52:21.984Z,5.19
2022-12-15T12:55:00.029Z,5.46
2022-12-15T12:57:39.703Z,5.85
2022-12-15T13:00:25.059Z,6.21
2022-12-15T13:03:16.461Z,6.47
2022-12-15T13:05:47.160Z,7.67
2022-12-15T13:08:51.379Z,8.25
2022-12-15T13:11:57.300Z,9.00
2022-12-15T13:14:38.625Z,8.81
2022-12-15T13:17:31.268Z,7.94
2022-12-15T13:20:17.031Z,6.95
2022-12-15T13:22:45.854Z,6.12
2022-12-15T13:25:42.430Z,5.35
2022-12-15T13:28:27.849Z,4.85
2022-12-15T13:31:33.954Z,4.23
2022-12-15T13:34:16.175Z,3.43
2022-12-15T13:36:54.743Z,3.11
2022-12-15T13:39:56.371Z,3.18
2022-12-15T13:42:35.883Z,2.22
2022-12-15T13:45:40.578Z,2.74
2022-12-15T13:48:31.193Z,2.59
2022-12-15T13:51:19.495Z,2.62
2022-12-15T13:53:51.698Z,2.39
2022-12-15T13:56:53.631Z,2.48
2022-12-15T13:59:31.918Z,2.44
2022-12-15T14:02:00.728Z,2.42
2022-12-15T14:04:29.061Z,2.36
2022-12-15T14:07:02.977Z,2.32
2022-12-15T14:09:34.098Z,2.06
2022-12-15T14:12:03.509Z,2.20
2022-12-15T14:14:36.235Z,2.11
2022-12-15T14:17:08.728Z,2.15
2022-12-15T14:19:41.620Z,2.13
2022-12-15T14:25:19.402Z,2.01
2022-12-15T14:27:50.740Z,1.97
2022-12-15T14:30:24.931Z,1.76
2022-12-15T14:32:57.707Z,1.68
2022-12-15T14:35:31.765Z,1.70
2022-12-15T14:38:04.522Z,1.35
2022-12-15T14:40:35.903Z,1.54
2022-12-15T14:43:05.595Z,1.02
2022-12-15T14:45:34.078Z,1.39
2022-12-15T14:48:40.117Z,1.22
2022-12-15T14:50:56.041Z,1.42
2022-12-15T14:53:34.967Z,1.46
2022-12-15T14:56:31.630Z,1.38
2022-12-15T14:59:04.044Z,1.40
2022-12-15T15:01:40.396Z,1.43
2022-12-15T15:04:24.594Z,1.43
2022-12-15T15:06:56.458Z,1.33
2022-12-15T15:09:28.502Z,1.40
2022-12-15T15:12:01.293Z,0.94
2022-12-15T15:14:33.612Z,1.40
2022-12-15T15:17:07.385Z,1.38
2022-12-15T15:19:40.890Z,1.32
2022-12-15T15:22:43.219Z,1.06
2022-12-15T15:25:40.268Z,1.32
2022-12-15T15:28:17.218Z,1.26
2022-12-15T15:30:48.538Z,1.26
2022-12-15T15:33:17.616Z,1.22
2022-12-15T15:35:50.234Z,1.21
2022-12-15T15:38:23.196Z,1.18
2022-12-15T15:40:57.733Z,1.14
2022-12-15T15:43:27.397Z,1.11
2022-12-15T15:46:01.889Z,1.06
2022-12-15T15:48:33.309Z,1.03
2022-12-15T15:51:02.245Z,0.89
2022-12-15T15:53:33.144Z,1.02
2022-12-15T15:56:06.659Z,0.89
2022-12-15T15:58:35.319Z,0.61
2022-12-15T16:01:09.580Z,0.27
2022-12-15T16:03:42.982Z,0.13
2022-12-15T16:06:16.657Z,1.05
2022-12-15T16:08:46.107Z,0.75
2022-12-15T16:11:17.471Z,0.88
2022-12-15T16:13:46.001Z,0.79
2022-12-15T16:16:19.311Z,0.74
2022-12-15T16:18:48.386Z,0.37
2022-12-15T16:21:17.986Z,0.76
2022-12-15T16:23:48.440Z,0.75
2022-12-15T16:26:26.953Z,0.64
2022-12-15T16:28:55.559Z,0.78
2022-12-15T16:31:35.472Z,0.61
2022-12-15T16:34:07.317Z,0.00
2022-12-15T16:36:35.592Z,0.77
2022-12-15T16:39:03.759Z,0.80
2022-12-15T16:41:34.229Z,0.92
2022-12-15T16:44:02.442Z,0.90
2022-12-15T16:46:30.638Z,0.71
2022-12-15T16:48:58.814Z,0.33
2022-12-15T16:51:35.281Z,0.69
2022-12-15T16:54:03.684Z,0.30
2022-12-15T16:56:33.689Z,1.06
2022-12-15T16:59:31.574Z,1.02
2022-12-15T17:01:50.288Z,0.97
2022-12-15T17:04:19.343Z,0.86
2022-12-15T17:06:47.595Z,0.78
2022-12-15T17:09:22.163Z,0.78
2022-12-15T17:11:52.576Z,0.84
2022-12-15T17:14:20.965Z,0.69
2022-12-15T17:16:49.160Z,0.92
2022-12-15T17:19:21.048Z,0.92
2022-12-15T17:21:51.998Z,0.76
2022-12-15T17:24:22.466Z,1.05
2022-12-15T17:26:52.421Z,1.04
2022-12-15T17:29:22.471Z,0.63
2022-12-15T17:31:51.286Z,1.02
2022-12-15T17:34:27.627Z,0.36
2022-12-15T17:36:56.480Z,1.05
2022-12-15T17:39:24.854Z,1.17
2022-12-15T17:42:02.816Z,1.11
2022-12-15T17:44:36.325Z,1.01
2022-12-15T17:47:07.933Z,1.05
2022-12-15T17:49:48.786Z,0.78
2022-12-15T17:52:27.033Z,1.03
2022-12-15T17:54:56.681Z,1.06
2022-12-15T17:57:26.372Z,1.09
2022-12-15T17:59:55.039Z,1.12
2022-12-15T18:02:23.363Z,1.08
2022-12-15T18:04:51.744Z,1.25
2022-12-15T18:07:22.039Z,1.22
2022-12-15T18:09:51.340Z,1.18
2022-12-15T18:12:21.847Z,0.89
2022-12-15T18:14:52.133Z,1.05
2022-12-15T18:17:20.499Z,0.67
2022-12-15T18:19:49.113Z,0.49
2022-12-15T18:22:22.582Z,1.16
2022-12-15T18:24:52.296Z,1.07
2022-12-15T18:27:23.658Z,0.91
2022-12-15T18:29:53.737Z,0.98
2022-12-15T18:32:23.637Z,1.11
2022-12-15T18:34:52.466Z,1.17
2022-12-15T18:37:23.051Z,1.06
2022-12-15T18:39:51.814Z,-0.83
2022-12-15T18:42:21.927Z,1.06
2022-12-15T18:44:53.588Z,1.11
2022-12-15T18:47:23.879Z,1.09
2022-12-15T18:49:52.440Z,1.11
2022-12-15T18:52:23.146Z,1.06
2022-12-15T18:54:54.241Z,1.05
2022-12-15T18:57:28.217Z,1.06
2022-12-15T19:00:00.367Z,0.98
2022-12-15T19:02:28.918Z,1.27
2022-12-15T19:04:57.296Z,1.06
2022-12-15T19:07:25.591Z,1.15
2022-12-15T19:09:54.248Z,1.14
2022-12-15T19:12:22.592Z,0.03
2022-12-15T19:14:53.084Z,1.11
2022-12-15T19:17:42.814Z,1.05
2022-12-15T19:20:35.549Z,1.06
2022-12-15T19:23:04.052Z,0.93
2022-12-15T19:25:33.024Z,0.65
2022-12-15T19:28:01.970Z,0.75
2022-12-15T19:30:37.077Z,0.81
2022-12-15T19:33:11.363Z,0.85
2022-12-15T19:35:41.318Z,0.99
2022-12-15T19:38:12.854Z,0.43
2022-12-15T19:40:41.225Z,0.96
2022-12-15T19:43:14.330Z,0.84
2022-12-15T19:45:42.548Z,0.79
2022-12-15T19:48:13.336Z,0.82
2022-12-15T19:50:43.181Z,-0.01
2022-12-15T19:53:18.703Z,0.78
2022-12-15T19:55:46.839Z,0.68
2022-12-15T19:58:27.810Z,0.83
2022-12-15T20:00:58.171Z,0.57
2022-12-15T20:03:28.746Z,0.74
2022-12-15T20:05:58.628Z,0.93
2022-12-15T20:08:29.192Z,0.84
2022-12-15T20:10:58.096Z,0.77
2022-12-15T20:13:27.259Z,0.96
2022-12-15T20:15:55.761Z,0.90
2022-12-15T20:18:24.135Z,0.91
2022-12-15T20:20:53.812Z,0.97
2022-12-15T20:23:27.057Z,1.03
2022-12-15T20:25:56.042Z,1.01
2022-12-15T20:28:26.876Z,0.99
2022-12-15T20:30:56.587Z,0.95
2022-12-15T20:33:24.847Z,0.91
2022-12-15T20:35:55.235Z,0.79
2022-12-15T20:38:30.138Z,0.72
2022-12-15T20:40:59.632Z,0.69
2022-12-15T20:43:31.392Z,0.63
2022-12-15T20:46:04.208Z,0.88
2022-12-15T20:48:34.816Z,0.59
2022-12-15T20:51:09.229Z,0.84
2022-12-15T20:53:39.143Z,0.88
2022-12-15T20:56:07.786Z,0.89
2022-12-15T20:58:41.754Z,0.91
2022-12-15T21:01:19.723Z,0.89
2022-12-15T21:03:48.827Z,0.89
2022-12-15T21:06:18.950Z,0.51
2022-12-15T21:08:47.158Z,0.80
2022-12-15T21:11:18.645Z,0.70
2022-12-15T21:13:48.701Z,0.68
2022-12-15T21:16:19.876Z,0.78
2022-12-15T21:21:40.849Z,0.83
2022-12-15T21:24:16.685Z,0.63
2022-12-15T21:26:44.996Z,0.76
2022-12-15T21:29:14.957Z,0.69
2022-12-15T21:31:43.500Z,0.77
2022-12-15T21:34:12.956Z,0.71
2022-12-15T21:36:45.115Z,0.42
2022-12-15T21:39:16.816Z,0.77
2022-12-15T21:41:45.459Z,0.75
2022-12-15T21:44:14.911Z,0.54
2022-12-15T21:46:43.584Z,0.60
2022-12-15T21:49:18.563Z,0.75
2022-12-15T21:51:51.863Z,0.81
2022-12-15T21:57:12.629Z,0.76
2022-12-15T21:59:40.945Z,0.74
2022-12-15T22:02:26.147Z,0.62
2022-12-15T22:04:55.087Z,0.59
2022-12-15T22:07:24.786Z,0.81
2022-12-15T22:09:52.961Z,0.75
2022-12-15T22:12:24.305Z,0.24
2022-12-15T22:14:52.889Z,0.70
2022-12-15T22:17:23.085Z,0.47
2022-12-15T22:19:51.274Z,0.90
2022-12-15T22:22:20.688Z,0.91
2022-12-15T22:24:50.257Z,0.85
2022-12-15T22:27:21.009Z,0.83
2022-12-15T22:29:50.411Z,0.87
2022-12-15T22:32:19.136Z,0.87
2022-12-15T22:34:47.339Z,0.88
2022-12-15T22:37:15.865Z,0.89
2022-12-15T22:39:43.961Z,-1.53
2022-12-15T22:42:17.987Z,0.84
2022-12-15T22:44:46.738Z,0.69
2022-12-15T22:47:15.068Z,0.68
2022-12-15T22:49:43.712Z,0.88
2022-12-15T22:52:17.363Z,0.41
2022-12-15T22:54:46.300Z,0.86
2022-12-15T22:57:21.931Z,0.85
2022-12-15T23:00:00.612Z,0.83
2022-12-15T23:02:30.118Z,0.84
2022-12-15T23:04:58.273Z,0.62
2022-12-15T23:07:26.750Z,0.87
2022-12-15T23:10:15.396Z,0.89
2022-12-15T23:12:44.061Z,0.67
2022-12-15T23:15:30.140Z,0.80
2022-12-15T23:17:58.312Z,0.93
2022-12-15T23:20:26.960Z,0.82
2022-12-15T23:22:55.253Z,0.89
2022-12-15T23:25:23.420Z,0.95
2022-12-15T23:27:53.071Z,1.03
2022-12-15T23:30:21.169Z,1.04
2022-12-15T23:32:49.275Z,0.99
2022-12-15T23:35:17.572Z,0.75
2022-12-15T23:37:46.043Z,0.76
2022-12-15T23:40:19.989Z,0.71
2022-12-15T23:42:48.429Z,0.62
2022-12-15T23:45:18.369Z,0.58
2022-12-15T23:47:46.686Z,-4.47
2022-12-15T23:50:15.206Z,0.63
2022-12-15T23:52:43.363Z,0.64
2022-12-15T23:55:11.592Z,0.65
2022-12-15T23:57:40.223Z,0.74
